»·PEaware :: DAL8734 PHNL-KLAX

DAL8734 :: PHNL-KLAX

FLIGHT INFORMATION

Flight Status: Arrived
Operator:
Delta Air Lines
More flights by this operator :: More flights under this callsign
Pilot: Alan J. (5709)
Aircraft: LOCKHEED L-1011 TRI-STAR
(L101)
More flights by this aircraft type
Origin: PHNL Honolulu Intl
United States
Destination: KLAX Los Angeles Intl
United States
More flights between these airports :: More routes between these airports
Route: MKK4 EBBER R577 ELKEY SADDE6
File this flight plan on PilotEdge
Remarks: / Z equipped
Altitude:
(Current/Filed)
35,000ft
Speed:
(Current/Filed)
485kts
Departed: 10-Apr-15 01:35 PM
Arrived: 10-Apr-15 06:37 PM
Distance/Time
Traveled:
2217nm/5:02
Distance/Time
To Go:
Arrived

Flight Plot

Page will automatically refresh every two minutes.


Map Options




Map Legend


Flown Route
Filed Route
Departure Airport
Arrival Airport
Navaid (VOR, NDB)
Fix

Horizontal Profiles

Position Reports

Time Latitude Longitude Heading Altitude Ground
Speed
10-Apr-15 12:26 21.328922 -157.916439 0 29ft 0kts
10-Apr-15 12:27 21.328922 -157.916439 0 29ft 0kts
10-Apr-15 12:28 21.328922 -157.916439 0 29ft 0kts
10-Apr-15 12:29 21.328922 -157.916439 0 29ft 0kts
10-Apr-15 12:30 21.328922 -157.916439 0 29ft 0kts
10-Apr-15 12:31 21.328922 -157.916439 0 29ft 0kts
10-Apr-15 12:32 21.328922 -157.916439 0 29ft 0kts
10-Apr-15 12:33 21.328922 -157.916439 0 29ft 0kts
10-Apr-15 12:34 21.328922 -157.916439 0 29ft 0kts
10-Apr-15 12:35 21.328922 -157.916439 0 29ft 0kts
10-Apr-15 12:36 21.328922 -157.916439 0 29ft 0kts
10-Apr-15 12:37 21.328922 -157.916439 0 29ft 0kts
10-Apr-15 12:38 21.328922 -157.916439 0 29ft 0kts
10-Apr-15 12:39 21.328922 -157.916439 0 29ft 0kts
10-Apr-15 12:40 21.328922 -157.916439 0 29ft 0kts
10-Apr-15 12:41 21.328922 -157.916439 0 29ft 0kts
10-Apr-15 12:42 21.328922 -157.916439 0 29ft 0kts
10-Apr-15 12:43 21.328922 -157.916439 0 29ft 0kts
10-Apr-15 12:44 21.328922 -157.916439 0 29ft 0kts
10-Apr-15 12:45 21.328922 -157.916439 0 29ft 0kts
10-Apr-15 12:46 21.328922 -157.916439 0 29ft 0kts
10-Apr-15 12:47 21.328922 -157.916439 0 29ft 0kts
10-Apr-15 12:48 21.328922 -157.916439 0 29ft 0kts
10-Apr-15 12:49 21.328922 -157.916439 0 29ft 0kts
10-Apr-15 12:50 21.328922 -157.916439 0 29ft 0kts
10-Apr-15 12:51 21.328922 -157.916439 0 29ft 0kts
10-Apr-15 12:52 21.328922 -157.916439 0 29ft 0kts
10-Apr-15 12:53 21.328922 -157.916439 0 29ft 0kts
10-Apr-15 12:54 21.328922 -157.916439 0 29ft 0kts
10-Apr-15 12:55 21.328922 -157.916439 0 29ft 0kts
10-Apr-15 12:56 21.328922 -157.916439 0 29ft 0kts
10-Apr-15 12:57 21.328922 -157.916439 0 29ft 0kts
10-Apr-15 12:58 21.328922 -157.916439 0 29ft 0kts
10-Apr-15 12:59 21.328922 -157.916439 0 29ft 0kts
10-Apr-15 13:00 21.328922 -157.916439 0 29ft 0kts
10-Apr-15 13:01 21.328922 -157.916439 0 29ft 0kts
10-Apr-15 13:02 21.328922 -157.916439 0 29ft 0kts
10-Apr-15 13:03 21.328922 -157.916439 0 29ft 0kts
10-Apr-15 13:04 21.328922 -157.916439 0 29ft 0kts
10-Apr-15 13:05 21.328922 -157.916439 0 29ft 0kts
10-Apr-15 13:06 21.328922 -157.916439 0 29ft 0kts
10-Apr-15 13:07 21.328922 -157.916439 0 29ft 0kts
10-Apr-15 13:08 21.328922 -157.916439 0 29ft 0kts
10-Apr-15 13:09 21.328922 -157.916439 0 29ft 0kts
10-Apr-15 13:10 21.328922 -157.916439 0 29ft 0kts
10-Apr-15 13:11 21.328922 -157.916439 0 29ft 0kts
10-Apr-15 13:12 21.328922 -157.916439 0 29ft 0kts
10-Apr-15 13:13 21.328659 -157.916440 0 29ft 1kts
10-Apr-15 13:14 21.328170 -157.916443 0 29ft 1kts
10-Apr-15 13:15 21.327750 -157.916434 332 29ft 1kts
10-Apr-15 13:16 21.327683 -157.916118 269 29ft 1kts
10-Apr-15 13:17 21.327684 -157.916084 270 29ft 0kts
10-Apr-15 13:18 21.327684 -157.916084 270 29ft 0kts
10-Apr-15 13:19 21.327684 -157.916084 270 29ft 0kts
10-Apr-15 13:20 21.327684 -157.916084 270 29ft 0kts
10-Apr-15 13:21 21.327684 -157.916111 270 29ft 0kts
10-Apr-15 13:22 21.327684 -157.916111 270 29ft 0kts
10-Apr-15 13:23 21.327684 -157.916111 270 29ft 0kts
10-Apr-15 13:24 21.327684 -157.916111 270 29ft 0kts
10-Apr-15 13:25 21.327684 -157.916111 270 29ft 0kts
10-Apr-15 13:26 21.327684 -157.916111 270 29ft 0kts
10-Apr-15 13:27 21.327684 -157.916111 270 29ft 0kts
10-Apr-15 13:28 21.327684 -157.916111 270 29ft 0kts
10-Apr-15 13:29 21.327713 -157.918413 270 29ft 26kts
10-Apr-15 13:30 21.327816 -157.927378 270 29ft 21kts
10-Apr-15 13:31 21.327416 -157.932880 269 29ft 25kts
10-Apr-15 13:32 21.327417 -157.941789 270 29ft 29kts
10-Apr-15 13:33 21.325242 -157.942661 87 29ft 0kts
10-Apr-15 13:34 21.325171 -157.917384 88 337ft 180kts
10-Apr-15 13:35 21.288224 -157.872440 137 2416ft 221kts
10-Apr-15 13:36 21.239942 -157.827414 133 4997ft 236kts
10-Apr-15 13:37 21.185243 -157.772070 132 8106ft 298kts
10-Apr-15 13:38 21.121163 -157.703117 133 11176ft 357kts
10-Apr-15 13:39 21.045176 -157.617972 132 14270ft 431kts
10-Apr-15 13:40 21.009109 -157.505777 78 17156ft 369kts
10-Apr-15 13:41 21.044153 -157.406254 65 20109ft 341kts
10-Apr-15 13:42 21.079312 -157.322307 65 22874ft 265kts
10-Apr-15 13:43 21.104073 -157.269367 59 9783ft 158kts
10-Apr-15 13:44 21.135459 -157.208939 57 6085ft 311kts
10-Apr-15 13:45 21.181478 -157.121873 60 10411ft 345kts
10-Apr-15 13:46 21.229217 -157.027873 60 13544ft 369kts
10-Apr-15 13:47 21.280520 -156.928515 60 16663ft 390kts
10-Apr-15 13:48 21.334036 -156.823661 60 19411ft 410kts
10-Apr-15 13:49 21.390224 -156.713612 60 21669ft 429kts
10-Apr-15 13:50 21.448644 -156.598886 60 24151ft 448kts
10-Apr-15 13:51 21.510199 -156.478269 59 26489ft 471kts
10-Apr-15 13:52 21.574375 -156.351777 58 28380ft 490kts
10-Apr-15 13:53 21.640821 -156.220534 58 29924ft 507kts
10-Apr-15 13:54 21.708965 -156.085649 58 31146ft 520kts
10-Apr-15 13:55 21.779903 -155.944976 58 31989ft 529kts
10-Apr-15 13:56 21.850463 -155.804545 58 32531ft 535kts
10-Apr-15 13:57 21.921547 -155.662553 58 32863ft 540kts
10-Apr-15 13:58 21.992855 -155.519947 58 33078ft 543kts
10-Apr-15 13:59 22.064329 -155.377384 58 33451ft 535kts
10-Apr-15 14:00 22.132960 -155.238623 58 34350ft 519kts
10-Apr-15 14:01 22.201076 -155.100498 58 35135ft 523kts
10-Apr-15 14:02 22.270138 -154.959846 58 35151ft 537kts
10-Apr-15 14:03 22.340644 -154.815884 58 35147ft 544kts
10-Apr-15 14:04 22.399656 -154.695326 58 35149ft 547kts
10-Apr-15 14:05 22.483045 -154.525313 58 35147ft 548kts
10-Apr-15 14:06 22.542523 -154.403431 58 35150ft 548kts
10-Apr-15 14:07 22.614006 -154.257246 58 35152ft 548kts
10-Apr-15 14:08 22.684948 -154.111243 58 35152ft 548kts
10-Apr-15 14:09 22.755924 -153.965076 59 35159ft 543kts
10-Apr-15 14:10 22.825391 -153.821479 59 35152ft 535kts
10-Apr-15 14:11 22.894317 -153.678552 59 35152ft 535kts
10-Apr-15 14:12 22.963341 -153.534993 59 35153ft 535kts
10-Apr-15 14:13 23.032289 -153.391374 59 35162ft 535kts
10-Apr-15 14:14 23.100725 -153.248182 59 35172ft 535kts
10-Apr-15 14:15 23.169388 -153.104263 59 35171ft 536kts
10-Apr-15 14:16 23.237968 -152.959973 59 35171ft 536kts
10-Apr-15 14:17 23.306373 -152.815646 60 35171ft 535kts
10-Apr-15 14:18 23.374311 -152.671802 60 35172ft 535kts
10-Apr-15 14:19 23.442404 -152.527676 60 35174ft 534kts
10-Apr-15 14:20 23.510456 -152.383834 60 35171ft 532kts
10-Apr-15 14:21 23.578182 -152.240785 60 35174ft 531kts
10-Apr-15 14:22 23.645919 -152.097729 60 35173ft 530kts
10-Apr-15 14:23 23.712664 -151.954201 60 35173ft 528kts
10-Apr-15 14:24 23.778709 -151.811145 61 35174ft 528kts
10-Apr-15 14:25 23.844347 -151.667181 61 35173ft 528kts
10-Apr-15 14:26 23.909757 -151.523206 60 35161ft 512kts
10-Apr-15 14:27 23.974164 -151.384506 60 35177ft 515kts
10-Apr-15 14:28 24.037636 -151.246110 62 35169ft 497kts
10-Apr-15 14:29 24.099603 -151.111141 62 35173ft 495kts
10-Apr-15 14:30 24.161380 -150.975759 62 35174ft 497kts
10-Apr-15 14:31 24.222899 -150.839982 62 35173ft 499kts
10-Apr-15 14:32 24.284451 -150.703187 62 35172ft 500kts
10-Apr-15 14:33 24.346506 -150.566009 62 35173ft 502kts
10-Apr-15 14:34 24.408591 -150.428282 62 35172ft 503kts
10-Apr-15 14:35 24.470383 -150.290640 62 35173ft 503kts
10-Apr-15 14:36 24.532354 -150.152316 62 35172ft 503kts
10-Apr-15 14:37 24.594113 -150.014070 62 35174ft 502kts
10-Apr-15 14:38 24.655081 -149.878893 64 35172ft 485kts
10-Apr-15 14:39 24.714338 -149.746506 64 35173ft 479kts
10-Apr-15 14:40 24.773203 -149.614532 64 35172ft 480kts
10-Apr-15 14:41 24.831922 -149.482237 64 35173ft 480kts
10-Apr-15 14:42 24.890230 -149.350176 64 35174ft 480kts
10-Apr-15 14:43 24.948506 -149.217407 64 35173ft 480kts
10-Apr-15 14:44 25.006677 -149.084424 64 35172ft 481kts
10-Apr-15 14:45 25.064627 -148.951727 65 35171ft 481kts
10-Apr-15 14:46 25.122557 -148.818406 65 35170ft 481kts
10-Apr-15 14:47 25.180477 -148.685079 65 35172ft 480kts
10-Apr-15 14:48 25.237447 -148.552086 65 35170ft 479kts
10-Apr-15 14:49 25.294112 -148.418786 65 35170ft 477kts
10-Apr-15 14:50 25.350829 -148.285996 65 35171ft 476kts
10-Apr-15 14:51 25.407607 -148.153836 65 35170ft 474kts
10-Apr-15 14:52 25.464150 -148.022582 65 35170ft 472kts
10-Apr-15 14:53 25.520197 -147.891321 66 35167ft 469kts
10-Apr-15 14:54 25.575154 -147.760072 66 35166ft 469kts
10-Apr-15 14:55 25.629904 -147.629032 66 35166ft 469kts
10-Apr-15 14:56 25.685394 -147.497653 66 35166ft 470kts
10-Apr-15 14:57 25.740848 -147.365927 66 35165ft 471kts
10-Apr-15 14:58 25.796312 -147.233835 66 35165ft 472kts
10-Apr-15 14:59 25.851912 -147.101751 66 35164ft 473kts
10-Apr-15 15:00 25.908428 -146.969069 66 35164ft 474kts
10-Apr-15 15:01 25.964498 -146.835875 66 35164ft 475kts
10-Apr-15 15:02 26.019803 -146.702021 66 35163ft 475kts
10-Apr-15 15:03 26.074844 -146.568592 66 35162ft 475kts
10-Apr-15 15:04 26.129983 -146.434641 66 35164ft 475kts
10-Apr-15 15:05 26.184967 -146.300716 66 35161ft 475kts
10-Apr-15 15:06 26.239335 -146.166257 67 35161ft 475kts
10-Apr-15 15:07 26.293344 -146.031601 67 35161ft 475kts
10-Apr-15 15:08 26.347310 -145.896977 66 35148ft 479kts
10-Apr-15 15:09 26.402725 -145.760896 65 35147ft 481kts
10-Apr-15 15:10 26.458113 -145.624230 65 35149ft 483kts
10-Apr-15 15:11 26.513621 -145.487074 65 35148ft 484kts
10-Apr-15 15:12 26.545193 -145.343772 89 35106ft 484kts
10-Apr-15 15:13 26.586157 -145.229798 52 35071ft 483kts
10-Apr-15 15:14 26.648498 -145.096810 66 35045ft 483kts
10-Apr-15 15:15 26.699815 -144.957453 66 35042ft 483kts
10-Apr-15 15:16 26.754059 -144.819500 65 35042ft 483kts
10-Apr-15 15:17 26.809086 -144.682090 66 35039ft 484kts
10-Apr-15 15:18 26.863589 -144.543718 65 35037ft 484kts
10-Apr-15 15:19 26.917947 -144.405292 66 35035ft 484kts
10-Apr-15 15:20 26.972174 -144.266559 65 35034ft 485kts
10-Apr-15 15:21 27.026132 -144.128190 65 35032ft 485kts
10-Apr-15 15:22 27.080271 -143.989065 65 35032ft 485kts
10-Apr-15 15:23 27.134479 -143.849150 64 35041ft 488kts
10-Apr-15 15:24 27.188543 -143.709404 64 35041ft 488kts
10-Apr-15 15:25 27.242516 -143.569096 65 35040ft 488kts
10-Apr-15 15:26 27.296294 -143.428497 65 35039ft 488kts
10-Apr-15 15:27 27.349390 -143.287398 65 35037ft 489kts
10-Apr-15 15:28 27.402093 -143.146442 65 35037ft 489kts
10-Apr-15 15:29 27.455574 -143.005105 64 35035ft 490kts
10-Apr-15 15:30 27.509494 -142.864399 65 35034ft 490kts
10-Apr-15 15:31 27.563582 -142.722954 64 35033ft 491kts
10-Apr-15 15:32 27.617333 -142.580927 65 35032ft 492kts
10-Apr-15 15:33 27.670584 -142.438525 65 35031ft 492kts
10-Apr-15 15:34 27.723736 -142.295735 65 35008ft 492kts
10-Apr-15 15:35 27.775540 -142.156128 65 35003ft 493kts
10-Apr-15 15:36 27.828496 -142.012832 65 35002ft 493kts
10-Apr-15 15:37 27.881267 -141.869329 65 35001ft 493kts
10-Apr-15 15:38 27.933949 -141.725704 65 34995ft 493kts
10-Apr-15 15:39 27.986342 -141.582464 65 34993ft 493kts
10-Apr-15 15:40 28.038272 -141.438752 64 34992ft 491kts
10-Apr-15 15:41 28.090015 -141.295311 64 34991ft 491kts
10-Apr-15 15:42 28.141640 -141.152253 64 35004ft 491kts
10-Apr-15 15:43 28.193491 -141.008516 64 35003ft 492kts
10-Apr-15 15:44 28.236025 -140.890574 65 35003ft 492kts
10-Apr-15 15:45 28.287122 -140.746146 66 35002ft 493kts
10-Apr-15 15:46 28.332876 -140.599520 67 35002ft 494kts
10-Apr-15 15:47 28.379292 -140.452331 67 35000ft 494kts
10-Apr-15 15:48 28.425086 -140.304791 67 34998ft 494kts
10-Apr-15 15:49 28.470551 -140.157537 67 35000ft 494kts
10-Apr-15 15:50 28.516130 -140.009655 67 34997ft 494kts
10-Apr-15 15:51 28.561815 -139.863132 66 34996ft 487kts
10-Apr-15 15:52 28.606676 -139.717996 67 34998ft 487kts
10-Apr-15 15:53 28.651651 -139.572181 67 35015ft 487kts
10-Apr-15 15:54 28.696447 -139.426291 67 35015ft 487kts
10-Apr-15 15:55 28.740900 -139.280771 67 35014ft 487kts
10-Apr-15 15:56 28.785413 -139.134743 67 35015ft 487kts
10-Apr-15 15:57 28.829616 -138.988916 67 35013ft 487kts
10-Apr-15 15:58 28.873826 -138.842536 67 35009ft 486kts
10-Apr-15 15:59 28.917813 -138.696104 67 35007ft 487kts
10-Apr-15 16:00 28.961615 -138.549580 67 35009ft 486kts
10-Apr-15 16:01 29.005138 -138.402935 67 35007ft 486kts
10-Apr-15 16:02 29.048451 -138.256242 67 35008ft 486kts
10-Apr-15 16:03 29.091531 -138.109467 67 35008ft 486kts
10-Apr-15 16:04 29.134286 -137.963318 66 35009ft 484kts
10-Apr-15 16:05 29.177342 -137.817738 66 35006ft 481kts
10-Apr-15 16:30 30.204739 -134.076200 67 35014ft 474kts
10-Apr-15 16:31 30.241952 -133.931065 65 35011ft 462kts
10-Apr-15 16:32 30.278901 -133.789640 65 35023ft 457kts
10-Apr-15 16:33 30.315979 -133.648407 65 35022ft 458kts
10-Apr-15 16:34 30.351861 -133.507245 66 35024ft 458kts
10-Apr-15 16:35 30.387642 -133.365386 66 35025ft 458kts
10-Apr-15 16:36 30.423327 -133.223401 66 35026ft 459kts
10-Apr-15 16:37 30.458941 -133.081064 65 35025ft 459kts
10-Apr-15 16:38 30.494216 -132.939117 66 35022ft 459kts
10-Apr-15 16:39 30.529449 -132.796380 66 35026ft 460kts
10-Apr-15 16:40 30.564619 -132.653194 66 35025ft 461kts
10-Apr-15 16:41 30.599599 -132.510326 65 35028ft 461kts
10-Apr-15 16:42 30.634574 -132.366859 65 35027ft 461kts
10-Apr-15 16:43 30.669299 -132.223258 66 35028ft 461kts
10-Apr-15 16:44 30.703875 -132.079582 66 35029ft 461kts
10-Apr-15 16:45 30.738243 -131.936377 67 35026ft 451kts
10-Apr-15 16:46 30.770952 -131.796728 67 35030ft 448kts
10-Apr-15 16:47 30.803564 -131.656525 67 35030ft 448kts
10-Apr-15 16:48 30.836321 -131.516203 67 35030ft 449kts
10-Apr-15 16:49 30.869212 -131.375880 67 35032ft 448kts
10-Apr-15 16:50 30.902371 -131.235586 67 35031ft 448kts
10-Apr-15 16:51 30.935571 -131.095633 67 35034ft 449kts
10-Apr-15 16:52 30.968595 -130.954819 68 35033ft 450kts
10-Apr-15 16:53 31.000438 -130.813527 68 35028ft 449kts
10-Apr-15 16:54 31.031916 -130.672096 68 35030ft 449kts
10-Apr-15 16:55 31.063380 -130.530897 68 35033ft 449kts
10-Apr-15 16:56 31.095113 -130.390617 68 35033ft 447kts
10-Apr-15 16:57 31.126630 -130.250326 68 35032ft 445kts
10-Apr-15 16:58 31.157834 -130.110307 68 35033ft 444kts
10-Apr-15 16:59 31.188891 -129.970979 69 35040ft 438kts
10-Apr-15 17:00 31.219723 -129.834517 68 35036ft 432kts
10-Apr-15 17:01 31.250217 -129.698120 69 35035ft 433kts
10-Apr-15 17:02 31.279789 -129.560956 69 35037ft 435kts
10-Apr-15 17:03 31.309586 -129.423656 69 35038ft 437kts
10-Apr-15 17:04 31.340043 -129.285447 69 35039ft 439kts
10-Apr-15 17:05 31.369990 -129.146195 70 35039ft 442kts
10-Apr-15 17:06 31.400043 -129.006084 71 35040ft 444kts
10-Apr-15 17:07 31.430702 -128.865401 71 35043ft 446kts
10-Apr-15 17:08 31.460335 -128.723916 71 35038ft 447kts
10-Apr-15 17:09 31.490185 -128.582152 71 35038ft 447kts
10-Apr-15 17:10 31.519876 -128.440362 72 35039ft 447kts
10-Apr-15 17:11 31.544381 -128.322632 72 35040ft 446kts
10-Apr-15 17:12 31.573278 -128.180981 72 35041ft 445kts
10-Apr-15 17:13 31.606382 -128.016226 72 35045ft 444kts
10-Apr-15 17:14 31.630049 -127.898424 72 35046ft 444kts
10-Apr-15 17:15 31.658725 -127.756969 72 35046ft 445kts
10-Apr-15 17:16 31.687132 -127.618049 72 35048ft 446kts
10-Apr-15 17:17 31.716528 -127.475719 73 35049ft 449kts
10-Apr-15 17:18 31.744948 -127.331979 73 35050ft 452kts
10-Apr-15 17:19 31.773905 -127.187212 73 35051ft 456kts
10-Apr-15 17:20 31.802929 -127.041077 74 35050ft 460kts
10-Apr-15 17:21 31.831636 -126.893516 74 35052ft 463kts
10-Apr-15 17:22 31.860398 -126.745419 75 35050ft 466kts
10-Apr-15 17:23 31.889050 -126.595938 75 35036ft 468kts
10-Apr-15 17:24 31.918089 -126.446204 75 35038ft 469kts
10-Apr-15 17:25 31.946690 -126.296127 76 35037ft 469kts
10-Apr-15 17:26 31.974588 -126.145619 76 35040ft 469kts
10-Apr-15 17:27 32.002085 -125.995183 76 35039ft 469kts
10-Apr-15 17:28 32.029672 -125.845254 74 35041ft 467kts
10-Apr-15 17:29 32.058139 -125.695381 74 35040ft 468kts
10-Apr-15 17:30 32.086213 -125.544801 75 35043ft 470kts
10-Apr-15 17:31 32.113425 -125.393442 75 35043ft 472kts
10-Apr-15 17:32 32.141067 -125.241485 75 35042ft 473kts
10-Apr-15 17:33 32.169232 -125.088958 76 35045ft 476kts
10-Apr-15 17:34 32.196239 -124.935472 76 35045ft 477kts
10-Apr-15 17:35 32.223310 -124.781788 76 35045ft 479kts
10-Apr-15 17:36 32.251039 -124.627071 76 35046ft 481kts
10-Apr-15 17:37 32.278667 -124.471883 77 35046ft 483kts
10-Apr-15 17:38 32.305367 -124.315592 77 35046ft 484kts
10-Apr-15 17:39 32.332096 -124.159028 77 35069ft 485kts
10-Apr-15 17:40 32.358688 -124.004192 77 35070ft 485kts
10-Apr-15 17:41 32.385213 -123.847557 77 35070ft 484kts
10-Apr-15 17:42 32.411688 -123.691109 77 35071ft 484kts
10-Apr-15 17:43 32.437997 -123.534281 78 35069ft 485kts
10-Apr-15 17:44 32.463945 -123.377145 78 35068ft 486kts
10-Apr-15 17:45 32.489132 -123.219104 78 35070ft 488kts
10-Apr-15 17:46 32.514511 -123.060599 78 35063ft 489kts
10-Apr-15 17:47 32.540273 -122.901989 78 35062ft 490kts
10-Apr-15 17:48 32.566405 -122.742958 78 35060ft 490kts
10-Apr-15 17:49 32.591952 -122.583412 79 35060ft 492kts
10-Apr-15 17:50 32.616523 -122.423770 79 35072ft 493kts
10-Apr-15 17:51 32.641302 -122.263184 79 35072ft 494kts
10-Apr-15 17:52 32.666231 -122.102673 79 35074ft 494kts
10-Apr-15 17:53 32.704776 -121.946731 62 35074ft 495kts
10-Apr-15 17:54 32.775606 -121.812104 55 35073ft 495kts
10-Apr-15 17:55 32.849447 -121.673270 58 35071ft 496kts
10-Apr-15 17:56 32.919342 -121.531356 59 35070ft 496kts
10-Apr-15 17:57 32.986816 -121.392646 59 35082ft 497kts
10-Apr-15 17:58 33.054263 -121.253888 59 35084ft 497kts
10-Apr-15 17:59 33.123913 -121.110702 59 35073ft 498kts
10-Apr-15 18:00 33.192603 -120.969130 59 34008ft 494kts
10-Apr-15 18:01 33.259555 -120.829940 60 31303ft 470kts
10-Apr-15 18:02 33.323084 -120.696000 60 28605ft 460kts
10-Apr-15 18:03 33.385552 -120.565271 59 25903ft 442kts
10-Apr-15 18:04 33.445922 -120.440216 59 24054ft 425kts
10-Apr-15 18:05 33.494622 -120.337512 59 24055ft 424kts
10-Apr-15 18:06 33.562656 -120.193921 59 24054ft 423kts
10-Apr-15 18:07 33.610855 -120.091788 59 24053ft 422kts
10-Apr-15 18:08 33.668667 -119.968816 59 24048ft 422kts
10-Apr-15 18:09 33.726275 -119.845614 60 24019ft 422kts
10-Apr-15 18:10 33.782636 -119.723264 60 21516ft 410kts
10-Apr-15 18:11 33.837013 -119.605446 60 18812ft 394kts
10-Apr-15 18:12 33.889464 -119.492473 60 16139ft 378kts
10-Apr-15 18:13 33.937965 -119.387597 60 14311ft 339kts
10-Apr-15 18:14 33.981669 -119.292384 60 12493ft 311kts
10-Apr-15 18:15 34.021304 -119.205579 60 12015ft 292kts
10-Apr-15 18:16 34.060837 -119.119329 60 12011ft 293kts
10-Apr-15 18:17 34.099415 -119.032488 70 11969ft 294kts
10-Apr-15 18:18 34.093228 -118.935197 107 12007ft 294kts
10-Apr-15 18:19 34.067966 -118.844589 109 11131ft 275kts
10-Apr-15 18:20 34.043870 -118.757361 108 9463ft 265kts
10-Apr-15 18:21 34.024156 -118.674473 97 8084ft 245kts
10-Apr-15 18:22 34.022899 -118.590614 85 7039ft 265kts
10-Apr-15 18:23 34.017046 -118.509543 102 6977ft 241kts
10-Apr-15 18:24 34.011297 -118.429897 80 6487ft 218kts
10-Apr-15 18:25 34.023763 -118.348150 80 5273ft 256kts
10-Apr-15 18:26 34.033549 -118.266334 81 4147ft 245kts
10-Apr-15 18:27 34.044339 -118.183584 81 4030ft 244kts
10-Apr-15 18:28 34.043465 -118.103594 116 4147ft 238kts
10-Apr-15 18:29 33.986274 -118.090347 217 3051ft 230kts
10-Apr-15 18:30 33.965687 -118.147612 253 3010ft 147kts
10-Apr-15 18:31 33.958793 -118.195611 262 2893ft 145kts
10-Apr-15 18:32 33.952166 -118.243011 261 2438ft 135kts
10-Apr-15 18:33 33.947246 -118.286993 262 1893ft 131kts
10-Apr-15 18:34 33.943151 -118.332361 265 1326ft 140kts
10-Apr-15 18:35 33.939033 -118.368431 260 400ft 128kts
10-Apr-15 18:36 33.935821 -118.400083 262 142ft 31kts
10-Apr-15 18:37 33.936602 -118.403744 310 142ft 0kts
10-Apr-15 18:38 33.938894 -118.405339 352 142ft 0kts
10-Apr-15 18:39 33.938895 -118.405339 352 142ft 0kts
10-Apr-15 18:40 33.938933 -118.407094 262 142ft 0kts
10-Apr-15 18:41 33.939152 -118.407898 341 142ft 10kts
10-Apr-15 18:42 33.941725 -118.408622 267 142ft 7kts
10-Apr-15 18:43 33.941703 -118.408984 265 142ft 0kts
10-Apr-15 18:44 33.941703 -118.408986 265 142ft 0kts
10-Apr-15 18:45 33.941703 -118.408986 265 142ft 0kts
10-Apr-15 18:46 33.941703 -118.408986 265 142ft 0kts

Navigation Log

Ident Type
1. PHNL Airport
2. BLUSH Fix
3. SESXI Fix
4. ALICA Fix
5. EBBER Fix
6. ELOYI Fix
7. ERROT Fix
8. ETNIC Fix
9. ETECO Fix
10. EDSEL Fix
11. EDTOO Fix
12. ELKEY Fix
13. VTU Navaid
14. SADDE Fix
15. BAYST Fix
16. SMO Navaid
17. JAVSI Fix
18. KLAX Airport